createdAt,value
2018-03-21T00:00:16.293Z,74.45
2018-03-21T00:01:05.063Z,75.12
2018-03-21T00:01:54.132Z,75.45
2018-03-21T00:02:43.171Z,75.95
2018-03-21T00:03:32.235Z,75.58
2018-03-21T00:04:21.276Z,75.22
2018-03-21T00:05:10.325Z,75.29
2018-03-21T00:05:59.427Z,75.31
2018-03-21T00:06:48.483Z,75.47
2018-03-21T00:07:37.525Z,75.03
2018-03-21T00:08:26.577Z,75.03
2018-03-21T00:09:15.630Z,75.42
2018-03-21T00:10:04.738Z,74.95
2018-03-21T00:10:53.980Z,75.07
2018-03-21T00:11:43.026Z,75.05
2018-03-21T00:12:32.097Z,75.00
2018-03-21T00:13:21.145Z,75.81
2018-03-21T00:14:10.188Z,75.71
2018-03-21T00:14:59.229Z,75.48
2018-03-21T00:15:48.393Z,75.15
2018-03-21T00:16:37.450Z,75.89
2018-03-21T00:17:26.704Z,76.07
2018-03-21T00:18:15.749Z,75.64
2018-03-21T00:19:04.821Z,74.35
2018-03-21T00:19:53.853Z,74.36
2018-03-21T00:20:42.906Z,76.13
2018-03-21T00:21:31.998Z,75.96
2018-03-21T00:22:21.260Z,75.60
2018-03-21T00:23:10.406Z,75.80
2018-03-21T00:23:59.467Z,75.41
2018-03-21T00:24:48.504Z,75.81
2018-03-21T00:25:37.550Z,75.40
2018-03-21T00:26:26.592Z,74.92
2018-03-21T00:27:15.661Z,75.24
2018-03-21T00:28:04.688Z,75.24
2018-03-21T00:28:53.792Z,75.00
2018-03-21T00:29:42.844Z,74.69
2018-03-21T00:30:31.930Z,74.10
2018-03-21T00:31:20.968Z,73.94
2018-03-21T00:32:10.025Z,75.12
2018-03-21T00:32:59.164Z,75.72
2018-03-21T00:33:48.212Z,75.42
2018-03-21T00:34:37.259Z,76.29
2018-03-21T00:35:26.348Z,76.58
2018-03-21T00:36:15.385Z,76.75
2018-03-21T00:37:04.438Z,76.79
2018-03-21T00:37:53.482Z,76.87
2018-03-21T00:38:42.625Z,76.97
2018-03-21T00:39:31.674Z,76.68
2018-03-21T00:40:20.721Z,76.55
2018-03-21T00:41:09.764Z,76.38
2018-03-21T00:41:58.806Z,76.87
2018-03-21T00:42:47.912Z,77.40
2018-03-21T00:43:36.928Z,78.30
2018-03-21T00:44:26.020Z,78.35
2018-03-21T00:45:15.066Z,78.27
2018-03-21T00:46:04.117Z,78.32
2018-03-21T00:46:53.168Z,78.89
2018-03-21T00:47:42.212Z,79.19
2018-03-21T00:48:31.263Z,79.57
2018-03-21T00:49:20.306Z,79.76
2018-03-21T00:50:09.401Z,79.81
2018-03-21T00:50:58.454Z,79.85
2018-03-21T00:51:47.521Z,79.27
2018-03-21T00:52:36.560Z,78.88
2018-03-21T00:53:25.637Z,78.59
2018-03-21T00:54:14.723Z,78.09
2018-03-21T00:55:03.795Z,79.17
2018-03-21T00:55:52.965Z,78.78
2018-03-21T00:56:42.012Z,78.34
2018-03-21T00:57:31.058Z,78.43
2018-03-21T00:58:20.307Z,77.90
2018-03-21T00:59:09.369Z,77.33
2018-03-21T00:59:58.418Z,77.14
2018-03-21T01:00:47.463Z,77.18
2018-03-21T01:01:36.514Z,77.53
2018-03-21T01:02:25.565Z,77.37
2018-03-21T01:03:14.616Z,77.07
2018-03-21T01:04:03.742Z,77.42
2018-03-21T01:04:52.820Z,77.40
2018-03-21T01:05:41.875Z,77.41
2018-03-21T01:06:30.972Z,77.37
2018-03-21T01:07:20.054Z,76.47
2018-03-21T01:08:09.109Z,76.24
2018-03-21T01:08:58.158Z,77.11
2018-03-21T01:09:47.251Z,76.96
2018-03-21T01:10:36.302Z,77.00
2018-03-21T01:11:25.369Z,76.89
2018-03-21T01:12:17.522Z,76.75
2018-03-21T01:13:06.581Z,76.04
2018-03-21T01:13:55.625Z,76.28
2018-03-21T01:14:44.675Z,76.45
2018-03-21T01:15:33.863Z,76.77
2018-03-21T01:16:22.944Z,76.65
2018-03-21T01:17:11.998Z,76.42
2018-03-21T01:18:01.048Z,76.28
2018-03-21T01:18:50.098Z,76.45
2018-03-21T01:19:39.166Z,77.06
2018-03-21T01:20:28.216Z,77.87
2018-03-21T01:21:17.305Z,78.00
2018-03-21T01:22:06.351Z,78.09
2018-03-21T01:22:55.411Z,78.10
2018-03-21T01:23:44.495Z,77.36
2018-03-21T01:24:33.580Z,77.32
2018-03-21T01:25:22.632Z,77.20
2018-03-21T01:26:11.690Z,76.69
2018-03-21T01:27:00.853Z,76.78
2018-03-21T01:27:49.893Z,77.10
2018-03-21T01:28:38.928Z,77.32
2018-03-21T01:29:27.964Z,77.11
2018-03-21T01:30:17.008Z,76.73
2018-03-21T01:31:06.150Z,77.51
2018-03-21T01:31:55.210Z,77.09
2018-03-21T01:32:44.258Z,76.76
2018-03-21T01:33:33.304Z,76.71
2018-03-21T01:34:22.353Z,76.61
2018-03-21T01:35:11.443Z,76.61
2018-03-21T01:36:00.496Z,76.93
2018-03-21T01:36:49.621Z,76.66
2018-03-21T01:37:38.697Z,76.85
2018-03-21T01:38:27.779Z,76.85
2018-03-21T01:39:16.831Z,76.45
2018-03-21T01:40:05.889Z,76.66
2018-03-21T01:40:54.937Z,76.65
2018-03-21T01:41:44.051Z,76.50
2018-03-21T01:42:33.117Z,76.48
2018-03-21T01:43:22.185Z,76.45
2018-03-21T01:44:11.231Z,76.68
2018-03-21T01:45:00.299Z,77.21
2018-03-21T01:45:49.521Z,77.67
2018-03-21T01:46:38.589Z,77.24
2018-03-21T01:47:27.728Z,76.22
2018-03-21T01:48:16.771Z,76.39
2018-03-21T01:49:05.826Z,75.92
2018-03-21T01:49:54.887Z,76.42
2018-03-21T01:50:43.938Z,76.65
2018-03-21T01:51:33.001Z,76.96
2018-03-21T01:52:22.040Z,76.94
2018-03-21T01:53:11.206Z,76.85
2018-03-21T01:54:00.258Z,76.65
2018-03-21T01:54:49.299Z,76.22
2018-03-21T01:55:38.356Z,76.21
2018-03-21T01:56:27.407Z,76.72
2018-03-21T01:57:16.455Z,76.52
2018-03-21T01:58:05.557Z,76.32
2018-03-21T01:58:54.717Z,76.36
2018-03-21T01:59:43.762Z,76.00
2018-03-21T02:00:32.833Z,75.87
2018-03-21T02:01:21.879Z,75.68
2018-03-21T02:02:10.929Z,75.97
2018-03-21T02:03:00.004Z,76.40
2018-03-21T02:03:49.057Z,76.72
2018-03-21T02:04:38.149Z,76.47
2018-03-21T02:05:27.192Z,76.18
2018-03-21T02:06:16.582Z,76.65
2018-03-21T02:07:05.650Z,76.32
2018-03-21T02:07:54.704Z,76.80
2018-03-21T02:08:43.747Z,76.79
2018-03-21T02:09:32.921Z,76.66
2018-03-21T02:10:21.973Z,76.86
2018-03-21T02:11:11.028Z,76.85
2018-03-21T02:12:00.126Z,77.00
2018-03-21T02:12:49.164Z,76.43
2018-03-21T02:13:38.238Z,76.13
2018-03-21T02:14:27.295Z,75.98
2018-03-21T02:15:16.365Z,75.73
2018-03-21T02:16:05.409Z,75.96
2018-03-21T02:16:54.489Z,75.47
2018-03-21T02:17:43.530Z,75.35
2018-03-21T02:18:32.570Z,75.50
2018-03-21T02:19:21.620Z,75.78
2018-03-21T02:20:10.673Z,75.89
2018-03-21T02:20:59.712Z,75.71
2018-03-21T02:21:48.756Z,76.05
2018-03-21T02:22:37.915Z,76.25
2018-03-21T02:23:26.968Z,76.65
2018-03-21T02:24:16.017Z,76.38
2018-03-21T02:25:05.072Z,76.63
2018-03-21T02:25:54.129Z,76.95
2018-03-21T02:26:43.265Z,76.93
2018-03-21T02:27:32.483Z,76.31
2018-03-21T02:28:21.533Z,76.75
2018-03-21T02:29:10.560Z,76.51
2018-03-21T02:29:59.597Z,76.45
2018-03-21T02:30:48.669Z,77.30
2018-03-21T02:31:37.721Z,77.22
2018-03-21T02:32:26.825Z,77.15
2018-03-21T02:33:15.866Z,76.89
2018-03-21T02:34:04.929Z,76.96
2018-03-21T02:34:54.040Z,78.02
2018-03-21T02:35:43.094Z,78.05
2018-03-21T02:36:32.144Z,77.27
2018-03-21T02:37:21.197Z,77.59
2018-03-21T02:38:10.240Z,77.89
2018-03-21T02:38:59.301Z,77.86
2018-03-21T02:39:48.379Z,77.73
2018-03-21T02:40:37.438Z,76.85
2018-03-21T02:41:26.564Z,76.93
2018-03-21T02:42:15.639Z,77.45
2018-03-21T02:43:04.683Z,77.00
2018-03-21T02:43:53.754Z,77.38
2018-03-21T02:44:42.796Z,77.48
2018-03-21T02:45:31.948Z,77.14
2018-03-21T02:46:21.007Z,76.73
2018-03-21T02:47:10.066Z,76.46
2018-03-21T02:47:59.110Z,76.55
2018-03-21T02:48:48.218Z,77.15
2018-03-21T02:49:37.278Z,77.57
2018-03-21T02:50:26.328Z,77.78
2018-03-21T02:51:15.459Z,79.11
2018-03-21T02:52:04.523Z,79.44
2018-03-21T02:52:53.765Z,78.47
2018-03-21T02:53:42.808Z,78.20
2018-03-21T02:54:31.869Z,77.68
2018-03-21T02:55:20.928Z,77.55
2018-03-21T02:56:09.982Z,77.31
2018-03-21T02:56:59.038Z,77.59
2018-03-21T02:57:48.109Z,77.62
2018-03-21T02:58:37.214Z,77.25
2018-03-21T02:59:26.256Z,78.14
2018-03-21T03:00:15.315Z,78.96
2018-03-21T03:01:04.388Z,79.74
2018-03-21T03:01:53.437Z,79.94
2018-03-21T03:02:42.491Z,79.80
2018-03-21T03:03:31.537Z,79.34
2018-03-21T03:04:20.700Z,78.87
2018-03-21T03:05:09.752Z,78.15
2018-03-21T03:05:58.802Z,78.49
2018-03-21T03:06:47.861Z,78.67
2018-03-21T03:07:36.918Z,78.54
2018-03-21T03:08:25.965Z,78.27
2018-03-21T03:09:15.029Z,78.26
2018-03-21T03:10:04.160Z,78.46
2018-03-21T03:10:53.210Z,78.09
2018-03-21T03:11:42.300Z,76.99
2018-03-21T03:12:31.344Z,77.53
2018-03-21T03:13:20.392Z,77.63
2018-03-21T03:14:09.441Z,76.88
2018-03-21T03:14:58.676Z,77.22
2018-03-21T03:15:47.726Z,77.28
2018-03-21T03:16:36.799Z,76.67
2018-03-21T03:17:25.876Z,77.04
2018-03-21T03:18:14.921Z,76.77
2018-03-21T03:19:03.964Z,77.72
2018-03-21T03:19:53.014Z,77.22
2018-03-21T03:20:42.111Z,76.94
2018-03-21T03:21:31.155Z,77.56
2018-03-21T03:22:20.195Z,77.69
2018-03-21T03:23:09.250Z,77.42
2018-03-21T03:23:58.306Z,77.97
2018-03-21T03:24:47.356Z,77.11
2018-03-21T03:25:36.400Z,76.58
2018-03-21T03:26:25.477Z,76.55
2018-03-21T03:27:14.550Z,77.10
2018-03-21T03:28:03.630Z,77.48
2018-03-21T03:28:52.677Z,77.33
2018-03-21T03:29:41.729Z,77.30
2018-03-21T03:30:30.777Z,77.22
2018-03-21T03:31:19.832Z,77.23
2018-03-21T03:32:09.032Z,77.06
2018-03-21T03:32:58.096Z,77.13
2018-03-21T03:33:47.181Z,77.37
2018-03-21T03:34:36.409Z,77.12
2018-03-21T03:35:25.486Z,77.33
2018-03-21T03:36:14.625Z,76.92
2018-03-21T03:37:03.758Z,76.91
2018-03-21T05:56:24.227Z,79.96
2018-03-21T05:57:13.287Z,79.75
2018-03-21T05:58:02.340Z,79.94
2018-03-21T05:58:51.395Z,80.40
2018-03-21T05:59:40.466Z,82.01
2018-03-21T06:00:29.525Z,81.20
2018-03-21T06:01:18.771Z,79.96
2018-03-21T06:02:07.883Z,79.78
2018-03-21T06:02:56.981Z,79.96
2018-03-21T06:03:46.258Z,80.00
2018-03-21T06:04:35.332Z,79.43
2018-03-21T06:05:24.394Z,79.14
2018-03-21T06:06:13.454Z,79.26
2018-03-21T06:07:02.505Z,78.26
2018-03-21T06:07:51.610Z,78.98
2018-03-21T06:08:40.676Z,79.62
2018-03-21T06:09:29.759Z,79.74
2018-03-21T06:10:18.941Z,79.95
2018-03-21T06:11:08.000Z,80.00
2018-03-21T06:11:57.102Z,78.68
2018-03-21T06:12:46.173Z,77.57
2018-03-21T06:13:35.337Z,77.39
2018-03-21T06:14:24.414Z,77.40
2018-03-21T06:15:13.483Z,76.38
2018-03-21T06:16:02.565Z,77.59
2018-03-21T06:16:51.611Z,78.05
2018-03-21T06:17:40.668Z,78.77
2018-03-21T06:18:29.728Z,78.64
2018-03-21T06:19:18.836Z,76.09
2018-03-21T06:20:07.913Z,76.72
2018-03-21T06:20:56.989Z,76.17
2018-03-21T06:21:46.036Z,76.39
2018-03-21T06:22:35.141Z,76.88
2018-03-21T06:23:24.209Z,77.05
2018-03-21T06:24:13.273Z,76.35
2018-03-21T06:25:02.378Z,76.78
2018-03-21T06:25:51.434Z,76.44
2018-03-21T06:26:40.494Z,77.46
2018-03-21T06:27:29.583Z,77.45
2018-03-21T06:28:18.636Z,77.41
2018-03-21T06:29:07.693Z,76.07
2018-03-21T06:29:56.745Z,76.07
2018-03-21T06:30:46.038Z,75.92
2018-03-21T06:31:35.092Z,74.60
2018-03-21T06:32:24.170Z,74.88
2018-03-21T06:33:13.240Z,75.05
2018-03-21T06:34:02.298Z,75.64
2018-03-21T06:34:51.374Z,75.57
2018-03-21T06:35:40.455Z,77.10
2018-03-21T06:36:29.645Z,75.64
2018-03-21T06:37:18.702Z,76.10
2018-03-21T06:38:07.769Z,75.76
2018-03-21T06:38:56.821Z,75.23
2018-03-21T06:39:45.872Z,74.89
2018-03-21T06:40:34.959Z,75.96
2018-03-21T06:41:24.018Z,76.43
2018-03-21T06:42:13.133Z,75.50
2018-03-21T06:43:02.225Z,75.24
2018-03-21T06:43:51.287Z,74.78
2018-03-21T06:44:40.372Z,76.14
2018-03-21T06:45:29.447Z,75.44
2018-03-21T06:46:18.531Z,75.80
2018-03-21T06:47:07.594Z,75.18
2018-03-21T06:47:56.711Z,75.70
2018-03-21T06:48:45.769Z,76.31
2018-03-21T06:49:34.824Z,76.93
2018-03-21T06:50:23.889Z,75.71
2018-03-21T06:51:13.009Z,75.65
2018-03-21T06:52:02.070Z,76.51
2018-03-21T06:52:51.148Z,76.39
2018-03-21T06:53:40.205Z,75.07
2018-03-21T06:54:29.276Z,75.67
2018-03-21T06:55:18.458Z,75.01
2018-03-21T06:56:07.530Z,75.35
2018-03-21T06:56:56.656Z,76.34
2018-03-21T06:57:45.711Z,76.57
2018-03-21T06:58:34.781Z,77.15
2018-03-21T06:59:23.847Z,77.95
2018-03-21T07:00:12.953Z,77.89
2018-03-21T07:01:02.117Z,77.39
2018-03-21T07:01:51.180Z,77.52
2018-03-21T07:02:40.237Z,77.15
2018-03-21T07:03:29.285Z,77.58
2018-03-21T07:04:18.349Z,78.73
2018-03-21T07:05:07.423Z,79.01
2018-03-21T07:05:56.488Z,78.51
2018-03-21T07:06:45.590Z,80.27
2018-03-21T07:07:34.662Z,80.49
2018-03-21T07:08:23.739Z,80.76
2018-03-21T07:09:12.813Z,80.71
2018-03-21T07:10:01.874Z,81.42
2018-03-21T07:10:50.933Z,80.98
2018-03-21T07:11:39.995Z,80.24
2018-03-21T07:12:29.174Z,80.48
2018-03-21T07:13:18.304Z,78.94
2018-03-21T07:14:19.081Z,78.34
2018-03-21T07:15:19.997Z,77.43
2018-03-21T07:16:20.812Z,77.30
2018-03-21T07:17:09.907Z,78.11
2018-03-21T07:17:58.975Z,76.48
2018-03-21T07:18:48.035Z,76.98
2018-03-21T07:19:37.104Z,77.02
2018-03-21T07:20:26.275Z,76.84
2018-03-21T07:21:15.322Z,77.49
2018-03-21T07:22:04.414Z,77.74
2018-03-21T07:22:53.465Z,77.89
2018-03-21T07:23:42.525Z,78.01
2018-03-21T07:24:31.630Z,76.92
2018-03-21T07:25:20.657Z,76.51
2018-03-21T07:26:09.753Z,76.31
2018-03-21T07:26:58.830Z,76.84
2018-03-21T07:27:48.074Z,76.68
2018-03-21T07:28:37.167Z,78.50
2018-03-21T07:29:26.257Z,77.90
2018-03-21T07:30:15.308Z,78.46
2018-03-21T07:31:04.434Z,78.67
2018-03-21T07:31:53.631Z,78.34
2018-03-21T07:32:42.709Z,78.37
2018-03-21T07:33:31.772Z,77.65
2018-03-21T07:34:20.838Z,78.62
2018-03-21T07:35:09.894Z,79.48
2018-03-21T07:35:58.949Z,79.45
2018-03-21T07:36:48.018Z,79.44
2018-03-21T07:37:37.177Z,78.83
2018-03-21T07:38:26.228Z,78.75
2018-03-21T07:39:15.299Z,78.69
2018-03-21T07:40:04.392Z,77.44
2018-03-21T07:40:53.449Z,78.82
2018-03-21T07:41:42.499Z,78.03
2018-03-21T07:42:31.575Z,77.94
2018-03-21T07:43:20.775Z,78.48
2018-03-21T07:44:09.842Z,78.71
2018-03-21T07:44:58.898Z,78.86
2018-03-21T07:45:47.973Z,78.92
2018-03-21T07:46:37.071Z,78.32
2018-03-21T07:47:26.132Z,76.97
2018-03-21T07:48:15.197Z,76.95
2018-03-21T07:49:04.316Z,77.40
2018-03-21T07:49:53.370Z,76.37
2018-03-21T07:50:42.453Z,77.33
2018-03-21T07:51:31.517Z,78.04
2018-03-21T07:52:20.585Z,77.84
2018-03-21T07:53:09.653Z,78.81
2018-03-21T07:53:58.728Z,79.34
2018-03-21T07:54:47.887Z,79.45
2018-03-21T07:55:36.959Z,79.40
2018-03-21T07:56:26.009Z,79.19
2018-03-21T07:57:18.157Z,79.12
2018-03-21T07:58:07.217Z,77.52
2018-03-21T07:58:56.271Z,77.51
2018-03-21T07:59:45.321Z,76.68
2018-03-21T08:00:34.510Z,77.10
2018-03-21T08:01:23.571Z,77.06
2018-03-21T08:02:12.634Z,76.45
2018-03-21T08:03:01.694Z,77.42
2018-03-21T08:03:50.759Z,77.45
2018-03-21T08:04:39.895Z,78.35
2018-03-21T08:05:28.966Z,78.01
2018-03-21T08:06:18.072Z,76.88
2018-03-21T08:07:07.140Z,76.83
2018-03-21T08:07:56.197Z,75.40
2018-03-21T08:08:45.267Z,75.10
2018-03-21T08:09:34.330Z,76.86
2018-03-21T08:10:23.388Z,76.41
2018-03-21T08:11:12.560Z,75.91
2018-03-21T08:12:01.635Z,76.01
2018-03-21T08:12:50.693Z,76.73
2018-03-21T08:13:39.748Z,77.39
2018-03-21T08:14:28.839Z,74.88
2018-03-21T08:15:17.912Z,76.07
2018-03-21T08:16:06.979Z,76.06
2018-03-21T08:16:56.182Z,76.47
2018-03-21T08:17:45.243Z,76.10
2018-03-21T08:18:34.293Z,74.67
2018-03-21T08:19:23.353Z,75.74
2018-03-21T08:20:12.471Z,75.62
2018-03-21T08:21:01.553Z,75.78
2018-03-21T08:21:50.606Z,75.59
2018-03-21T08:22:39.659Z,73.14
2018-03-21T08:23:28.745Z,73.00
2018-03-21T08:24:18.570Z,73.13
2018-03-21T08:25:07.651Z,73.99
2018-03-21T08:25:56.756Z,73.94
2018-03-21T08:26:45.822Z,75.08
2018-03-21T08:27:34.884Z,73.59
2018-03-21T08:28:23.949Z,72.80
2018-03-21T08:29:13.038Z,73.90
2018-03-21T08:30:02.125Z,74.55
2018-03-21T08:30:51.181Z,74.41
2018-03-21T08:31:40.257Z,74.51
2018-03-21T08:32:29.315Z,75.23
2018-03-21T08:33:18.472Z,75.14
2018-03-21T08:34:07.594Z,75.28
2018-03-21T08:34:57.038Z,74.20
2018-03-21T08:35:46.110Z,74.86
2018-03-21T08:36:35.188Z,75.58
2018-03-21T08:37:24.278Z,77.03
2018-03-21T08:38:13.332Z,76.91
2018-03-21T08:39:02.505Z,76.76
2018-03-21T08:39:51.592Z,78.30
2018-03-21T08:40:40.667Z,78.36
2018-03-21T08:41:29.792Z,77.41
2018-03-21T08:42:18.918Z,78.01
2018-03-21T08:43:07.995Z,78.68
2018-03-21T08:43:57.068Z,78.04
2018-03-21T08:44:46.130Z,78.28
2018-03-21T08:45:35.189Z,78.38
2018-03-21T08:46:24.249Z,78.32
2018-03-21T08:47:13.317Z,77.72
2018-03-21T08:48:02.434Z,79.08
2018-03-21T08:48:51.493Z,77.88
2018-03-21T08:49:40.672Z,78.67
2018-03-21T08:50:29.789Z,77.55
2018-03-21T08:51:18.855Z,79.27
2018-03-21T08:52:07.922Z,78.10
2018-03-21T08:52:57.037Z,78.73
2018-03-21T08:53:46.086Z,75.73
2018-03-21T08:54:35.293Z,74.01
2018-03-21T08:55:24.353Z,75.96
2018-03-21T08:56:13.451Z,76.67
2018-03-21T08:57:02.509Z,76.55
2018-03-21T08:57:51.619Z,75.83
2018-03-21T08:58:40.687Z,75.83
2018-03-21T08:59:29.755Z,75.85
2018-03-21T09:00:18.875Z,74.77
2018-03-21T09:01:07.942Z,74.31
2018-03-21T09:01:57.002Z,73.07
2018-03-21T09:02:46.062Z,74.06
2018-03-21T09:03:35.132Z,76.25
2018-03-21T09:04:24.183Z,76.03
2018-03-21T09:05:13.266Z,75.36
2018-03-21T09:06:05.479Z,74.47
2018-03-21T09:06:54.553Z,74.77
2018-03-21T09:07:43.652Z,74.42
2018-03-21T09:08:32.731Z,74.33
2018-03-21T09:09:21.785Z,74.48
2018-03-21T09:10:10.840Z,76.03
2018-03-21T09:10:59.900Z,75.83
2018-03-21T09:11:49.032Z,75.09
2018-03-21T09:12:38.117Z,72.55
2018-03-21T09:13:27.159Z,73.40
2018-03-21T09:14:16.214Z,73.62
2018-03-21T09:15:05.291Z,74.63
2018-03-21T09:15:54.340Z,74.95
2018-03-21T09:16:43.382Z,75.90
2018-03-21T09:17:32.484Z,76.48
2018-03-21T09:18:21.538Z,75.94
2018-03-21T09:19:10.589Z,76.25
2018-03-21T09:19:59.650Z,76.07
2018-03-21T09:20:48.690Z,75.76
2018-03-21T09:21:38.013Z,76.11
2018-03-21T09:22:27.060Z,73.98
2018-03-21T09:23:16.216Z,72.57
2018-03-21T09:24:05.282Z,73.34
2018-03-21T09:24:54.322Z,74.51
2018-03-21T09:25:43.617Z,75.77
2018-03-21T09:26:32.698Z,75.91
2018-03-21T09:27:21.746Z,75.64
2018-03-21T09:28:10.785Z,74.49
2018-03-21T09:28:59.825Z,76.07
2018-03-21T09:29:48.898Z,76.51
2018-03-21T09:30:37.994Z,76.75
2018-03-21T09:31:27.170Z,75.17
2018-03-21T09:32:16.229Z,77.94
2018-03-21T09:33:05.277Z,75.66
2018-03-21T09:33:54.326Z,76.98
2018-03-21T09:34:43.377Z,76.52
2018-03-21T09:35:32.428Z,76.52
2018-03-21T09:36:21.476Z,75.89
2018-03-21T09:37:10.567Z,74.56
2018-03-21T09:37:59.605Z,73.89
2018-03-21T09:38:48.656Z,76.46
2018-03-21T09:39:37.701Z,75.03
2018-03-21T09:40:26.758Z,75.63
2018-03-21T09:41:15.801Z,75.60
2018-03-21T09:42:04.932Z,75.65
2018-03-21T09:42:54.046Z,75.85
2018-03-21T09:43:43.114Z,76.27
2018-03-21T09:44:32.342Z,75.14
2018-03-21T09:45:21.388Z,75.22
2018-03-21T09:46:10.437Z,74.72
2018-03-21T09:46:59.594Z,75.48
2018-03-21T09:47:48.642Z,76.25
2018-03-21T09:48:37.740Z,75.35
2018-03-21T09:49:26.755Z,76.26
2018-03-21T09:50:15.801Z,74.71
2018-03-21T09:51:04.862Z,75.60
2018-03-21T09:51:53.912Z,75.36
2018-03-21T09:52:43.002Z,76.06
2018-03-21T09:53:32.058Z,76.41
2018-03-21T09:54:21.121Z,76.22
2018-03-21T09:55:10.184Z,75.59
2018-03-21T09:55:59.233Z,75.65
2018-03-21T09:56:48.284Z,75.10
2018-03-21T09:57:37.330Z,75.44
2018-03-21T09:58:26.911Z,75.74
2018-03-21T09:59:16.008Z,74.49
2018-03-21T10:00:05.121Z,75.97
2018-03-21T10:00:54.188Z,76.31
2018-03-21T10:01:43.245Z,76.63
2018-03-21T10:02:32.296Z,75.55
2018-03-21T10:03:21.340Z,76.63
2018-03-21T10:04:10.372Z,76.14
2018-03-21T10:04:59.503Z,75.72
2018-03-21T10:05:48.551Z,76.19
2018-03-21T10:06:37.601Z,75.69
2018-03-21T10:07:26.653Z,76.36
2018-03-21T10:08:15.706Z,77.36
2018-03-21T10:09:04.802Z,76.34
2018-03-21T10:09:53.880Z,76.37
2018-03-21T10:10:42.985Z,75.49
2018-03-21T10:11:32.024Z,74.88
2018-03-21T10:12:21.085Z,75.34
2018-03-21T10:13:10.318Z,75.41
2018-03-21T10:13:59.367Z,73.41
2018-03-21T10:14:48.421Z,74.27
2018-03-21T10:15:37.475Z,74.39
2018-03-21T10:16:26.595Z,74.66
2018-03-21T10:17:15.661Z,74.71
2018-03-21T10:18:04.727Z,70.35
2018-03-21T10:18:53.791Z,71.04
2018-03-21T10:19:42.853Z,70.82
2018-03-21T10:20:31.925Z,71.29
2018-03-21T10:21:20.999Z,71.98
2018-03-21T10:22:10.172Z,73.32
2018-03-21T10:22:59.276Z,73.62
2018-03-21T10:23:48.333Z,71.30
2018-03-21T10:24:37.387Z,72.52
2018-03-21T10:25:26.460Z,73.64
2018-03-21T10:26:15.528Z,73.57
2018-03-21T10:27:04.615Z,73.89
2018-03-21T10:27:53.777Z,74.97
2018-03-21T10:28:42.846Z,75.80
2018-03-21T10:29:31.901Z,76.58
2018-03-21T10:30:20.959Z,77.04
2018-03-21T10:31:10.045Z,77.37
2018-03-21T10:31:59.117Z,77.75
2018-03-21T10:32:48.222Z,76.69
2018-03-21T10:33:37.278Z,77.01
2018-03-21T10:34:26.347Z,76.93
2018-03-21T10:35:15.445Z,78.05
2018-03-21T10:36:04.601Z,76.16
2018-03-21T10:36:53.668Z,77.20
2018-03-21T10:37:42.725Z,77.00
2018-03-21T10:38:31.873Z,77.37
2018-03-21T10:39:20.926Z,77.40
2018-03-21T10:40:09.980Z,77.44
2018-03-21T10:40:59.049Z,77.62
2018-03-21T10:41:48.110Z,77.40
2018-03-21T10:42:37.157Z,78.31
2018-03-21T10:43:26.236Z,79.17
2018-03-21T10:44:15.419Z,79.97
2018-03-21T10:45:04.621Z,78.32
2018-03-21T10:45:53.667Z,77.95
2018-03-21T10:46:42.742Z,78.24
2018-03-21T10:47:31.829Z,78.60
2018-03-21T10:48:20.891Z,80.00
2018-03-21T10:49:09.953Z,79.03
2018-03-21T10:49:59.050Z,78.27
2018-03-21T10:50:48.150Z,78.28
2018-03-21T10:51:37.289Z,78.04
2018-03-21T10:52:38.775Z,79.02
2018-03-21T10:53:15.479Z,78.68
2018-03-21T10:54:04.557Z,79.98
2018-03-21T10:54:53.621Z,78.92
2018-03-21T10:55:42.690Z,78.92
2018-03-21T10:56:31.797Z,79.32
2018-03-21T10:57:20.849Z,78.51
2018-03-21T10:58:09.935Z,79.00
2018-03-21T10:58:59.013Z,78.40
2018-03-21T10:59:48.066Z,78.81
2018-03-21T11:00:37.232Z,78.21
2018-03-21T11:01:31.757Z,79.00
2018-03-21T11:02:20.826Z,78.96
2018-03-21T11:03:12.334Z,78.48
2018-03-21T11:04:01.392Z,78.63
2018-03-21T11:04:50.440Z,79.25
2018-03-21T11:05:39.599Z,79.70
2018-03-21T13:17:24.572Z,73.56
2018-03-21T13:18:13.674Z,74.02
2018-03-21T13:19:02.724Z,74.07
2018-03-21T13:19:51.811Z,74.50
2018-03-21T13:20:40.886Z,75.54
2018-03-21T13:21:29.945Z,75.33
2018-03-21T13:22:19.009Z,76.31
2018-03-21T13:23:08.160Z,76.26
2018-03-21T13:23:57.226Z,76.39
2018-03-21T13:24:46.286Z,74.81
2018-03-21T13:25:35.353Z,75.71
2018-03-21T13:26:24.404Z,75.12
2018-03-21T13:27:13.462Z,75.33
2018-03-21T13:28:02.527Z,74.88
2018-03-21T13:28:51.638Z,74.49
2018-03-21T13:29:40.704Z,74.71
2018-03-21T13:30:29.825Z,74.91
2018-03-21T13:31:18.904Z,74.83
2018-03-21T13:32:07.960Z,74.77
2018-03-21T13:32:57.022Z,74.33
2018-03-21T13:33:46.202Z,74.50
2018-03-21T13:34:35.258Z,75.20
2018-03-21T13:35:24.353Z,75.52
2018-03-21T13:36:13.561Z,75.71
2018-03-21T13:37:02.647Z,75.02
2018-03-21T13:37:51.737Z,75.52
2018-03-21T13:38:40.809Z,74.93
2018-03-21T13:39:29.874Z,74.84
2018-03-21T13:40:18.941Z,74.64
2018-03-21T13:41:08.005Z,75.12
2018-03-21T13:41:57.168Z,74.25
2018-03-21T13:42:46.227Z,75.18
2018-03-21T13:43:35.281Z,75.15
2018-03-21T13:44:24.338Z,75.44
2018-03-21T13:45:13.399Z,75.41
2018-03-21T13:46:02.459Z,75.86
2018-03-21T13:46:51.516Z,75.77
2018-03-21T13:47:40.638Z,76.46
2018-03-21T13:48:29.718Z,76.81
2018-03-21T13:49:18.782Z,76.70
2018-03-21T13:50:07.841Z,76.56
2018-03-21T13:50:56.900Z,76.68
2018-03-21T13:51:45.953Z,75.28
2018-03-21T13:52:35.000Z,74.98
2018-03-21T13:53:24.189Z,75.01
2018-03-21T13:54:13.256Z,75.33
2018-03-21T13:55:02.338Z,74.53
2018-03-21T13:55:51.394Z,74.58
2018-03-21T13:56:40.445Z,74.84
2018-03-21T13:57:29.500Z,75.69
2018-03-21T13:58:18.576Z,75.41
2018-03-21T13:59:07.705Z,74.49
2018-03-21T13:59:56.772Z,74.27
2018-03-21T14:00:45.854Z,72.04
2018-03-21T14:01:34.913Z,72.58
2018-03-21T14:02:23.989Z,72.08
2018-03-21T14:03:13.110Z,73.13
2018-03-21T14:04:02.194Z,73.55
2018-03-21T14:04:51.299Z,72.85
2018-03-21T14:05:40.362Z,73.47
2018-03-21T14:06:29.469Z,72.68
2018-03-21T14:07:18.575Z,72.98
2018-03-21T14:08:07.632Z,71.93
2018-03-21T14:08:56.705Z,72.07
2018-03-21T14:09:45.759Z,72.03
2018-03-21T14:10:34.819Z,72.27
2018-03-21T14:11:23.986Z,72.96
2018-03-21T14:12:13.045Z,72.57
2018-03-21T14:13:02.573Z,72.33
2018-03-21T14:13:51.635Z,71.79
2018-03-21T14:14:40.693Z,72.03
2018-03-21T14:15:29.746Z,71.73
2018-03-21T14:16:18.859Z,71.59
2018-03-21T14:17:07.970Z,71.91
2018-03-21T14:17:57.046Z,72.84
2018-03-21T14:18:46.138Z,73.98
2018-03-21T14:19:35.199Z,73.51
2018-03-21T14:20:24.259Z,73.49
2018-03-21T14:21:13.351Z,72.93
2018-03-21T14:22:02.400Z,72.36
2018-03-21T14:22:51.461Z,72.11
2018-03-21T14:23:40.528Z,71.66
2018-03-21T14:24:29.654Z,71.85
2018-03-21T14:25:18.712Z,72.02
2018-03-21T14:26:07.780Z,72.03
2018-03-21T14:26:56.828Z,72.13
2018-03-21T14:27:45.897Z,70.85
2018-03-21T14:28:34.969Z,71.43
2018-03-21T14:29:24.016Z,70.76
2018-03-21T14:30:13.159Z,71.40
2018-03-21T14:31:02.238Z,72.72
2018-03-21T14:31:51.288Z,72.33
2018-03-21T14:32:40.341Z,71.55
2018-03-21T14:33:29.404Z,71.25
2018-03-21T14:34:18.479Z,72.00
2018-03-21T14:35:07.593Z,72.50
2018-03-21T14:35:56.713Z,72.22
2018-03-21T14:36:45.797Z,70.82
2018-03-21T14:37:34.849Z,71.33
2018-03-21T14:38:23.904Z,72.49
2018-03-21T14:39:13.009Z,71.48
2018-03-21T14:40:02.076Z,72.24
2018-03-21T14:40:51.132Z,72.04
2018-03-21T14:41:40.191Z,71.79
2018-03-21T14:42:29.254Z,71.98
2018-03-21T14:43:18.316Z,72.34
2018-03-21T14:44:07.371Z,72.30
2018-03-21T14:44:56.479Z,71.93
2018-03-21T14:45:45.542Z,71.30
2018-03-21T14:46:34.595Z,71.72
2018-03-21T14:47:23.680Z,72.01
2018-03-21T14:48:12.734Z,72.27
2018-03-21T14:49:01.786Z,72.00
2018-03-21T14:49:50.845Z,72.85
2018-03-21T14:50:39.956Z,72.81
2018-03-21T14:51:29.070Z,72.04
2018-03-21T14:52:18.133Z,71.43
2018-03-21T14:53:07.221Z,71.82
2018-03-21T14:53:56.277Z,71.72
2018-03-21T14:54:45.453Z,72.43
2018-03-21T14:55:34.504Z,72.74
2018-03-21T14:56:23.565Z,72.28
2018-03-21T14:57:12.620Z,72.62
2018-03-21T14:58:01.673Z,72.34
2018-03-21T14:58:50.741Z,72.11
2018-03-21T14:59:39.800Z,71.95
2018-03-21T15:00:28.957Z,72.44
2018-03-21T15:01:18.012Z,72.76
2018-03-21T15:02:07.064Z,72.34